Time;durP1;ratioP1;P1;durP2;ratioP2;P2;SDS_P1;SDS_P2;PMS_P1;PMS_P2;Temp;Humidity;BMP_temperature;BMP_pressure;BME280_temperature;BME280_humidity;BME280_pressure;Samples;Min_cycle;Max_cycle;Signal;HPM_P1;HPM_P2
2023/01/25 05:24:35;;;;;;;40.58;17.17;;;0.20;99.90;;;;;;7552459;19;22153;-78
2023/01/25 05:27:13;;;;;;;47.88;18.90;;;0.10;99.90;;;;;;7582785;19;21261;-78
2023/01/25 05:29:58;;;;;;;48.08;17.70;;;0.20;99.90;;;;;;7579341;19;20022;-76
2023/01/25 05:32:44;;;;;;;52.33;18.45;;;0.30;99.90;;;;;;7595076;19;20934;-76
2023/01/25 05:35:18;;;;;;;51.30;18.40;;;0.40;99.90;;;;;;7595834;19;20018;-79
2023/01/25 05:37:57;;;;;;;48.78;18.80;;;0.40;99.90;;;;;;6581659;19;10000130;-76
2023/01/25 05:40:31;;;;;;;50.88;18.88;;;0.50;99.90;;;;;;7607395;19;20014;-80
2023/01/25 05:43:05;;;;;;;49.78;18.85;;;0.50;99.90;;;;;;7616138;19;20018;-77
2023/01/25 05:45:37;;;;;;;43.05;17.55;;;0.50;99.90;;;;;;7576201;19;20614;-76
2023/01/25 05:48:09;;;;;;;47.95;17.20;;;0.60;99.90;;;;;;7541647;19;20594;-77
2023/01/25 05:50:41;;;;;;;48.78;18.83;;;0.80;99.90;;;;;;7561919;19;21204;-73
2023/01/25 05:53:24;;;;;;;47.20;18.25;;;0.60;99.90;;;;;;7546929;19;20026;-73
2023/01/25 05:56:04;;;;;;;42.90;16.40;;;0.60;99.90;;;;;;7550154;19;20018;-73
2023/01/25 05:58:37;;;;;;;48.60;18.65;;;0.70;99.90;;;;;;7536624;19;20018;-74
2023/01/25 06:01:10;;;;;;;44.38;17.33;;;1.00;99.90;;;;;;7556428;19;21244;-74
2023/01/25 06:03:51;;;;;;;49.80;17.48;;;0.90;99.90;;;;;;7569217;19;20014;-74
2023/01/25 06:06:25;;;;;;;45.90;18.02;;;1.10;99.90;;;;;;7561538;19;20014;-74
2023/01/25 06:08:57;;;;;;;43.30;17.05;;;0.60;99.90;;;;;;7610721;19;20014;-74
2023/01/25 06:11:30;;;;;;;46.83;16.30;;;0.50;99.90;;;;;;7607104;19;20388;-76
2023/01/25 06:14:02;;;;;;;47.45;18.60;;;0.80;99.90;;;;;;7597003;19;20774;-74
2023/01/25 06:16:34;;;;;;;46.93;18.30;;;0.80;99.90;;;;;;7576363;19;20043;-74
2023/01/25 06:19:27;;;;;;;44.72;17.65;;;0.70;99.90;;;;;;7544234;19;20017;-74
2023/01/25 06:22:25;;;;;;;34.40;15.57;;;0.80;99.90;;;;;;7614337;19;20933;-73
2023/01/25 06:24:57;;;;;;;41.72;16.27;;;0.70;99.90;;;;;;7588354;19;20013;-76
2023/01/25 06:27:29;;;;;;;34.50;14.73;;;0.60;99.90;;;;;;7585394;19;20880;-76
2023/01/25 06:30:01;;;;;;;33.33;13.65;;;0.60;99.90;;;;;;7617175;19;20053;-76
2023/01/25 06:32:33;;;;;;;32.83;13.90;;;0.40;99.90;;;;;;7589667;19;20041;-75
2023/01/25 06:35:05;;;;;;;34.38;12.77;;;0.60;99.90;;;;;;7603847;19;20019;-73
2023/01/25 06:37:37;;;;;;;25.45;12.32;;;0.20;99.90;;;;;;7593352;19;20023;-75
2023/01/25 06:40:10;;;;;;;31.10;13.80;;;0.80;99.90;;;;;;7601543;19;20022;-76
2023/01/25 06:42:42;;;;;;;33.58;13.70;;;1.20;99.90;;;;;;7598934;19;20896;-76
2023/01/25 06:45:14;;;;;;;31.67;14.40;;;0.30;99.90;;;;;;7602722;19;20025;-76
2023/01/25 06:47:48;;;;;;;29.77;13.27;;;1.40;99.90;;;;;;7589049;19;20021;-76
2023/01/25 06:50:20;;;;;;;;;;;;;;;;;;7581839;19;20029;-75
2023/01/25 06:52:53;;;;;;;35.05;14.52;;;0.80;99.90;;;;;;7593833;19;19933;-76
2023/01/25 06:55:26;;;;;;;34.20;13.63;;;;;;;;;;7594564;19;20014;-76
2023/01/25 06:58:00;;;;;;;34.92;13.77;;;0.80;99.90;;;;;;7598992;19;20037;-75
2023/01/25 07:00:32;;;;;;;34.53;14.82;;;0.70;99.90;;;;;;7572329;19;20002;-76
2023/01/25 07:03:04;;;;;;;34.22;13.75;;;0.80;99.90;;;;;;7573820;19;20368;-76
2023/01/25 07:05:37;;;;;;;33.92;14.07;;;;;;;;;;7595257;19;20023;-76
2023/01/25 07:08:09;;;;;;;34.70;14.68;;;0.80;99.90;;;;;;7574344;19;20025;-76
2023/01/25 07:10:41;;;;;;;43.30;16.13;;;0.70;99.90;;;;;;7570016;19;20019;-77
2023/01/25 07:13:14;;;;;;;34.55;14.55;;;0.70;99.90;;;;;;7571765;19;20010;-76
2023/01/25 07:15:52;;;;;;;35.97;14.80;;;0.70;99.90;;;;;;7572466;19;20026;-74
2023/01/25 07:18:25;;;;;;;34.80;16.50;;;0.60;99.90;;;;;;7586015;19;20290;-77
2023/01/25 07:21:04;;;;;;;40.17;15.75;;;0.50;99.90;;;;;;7572821;19;20026;-74
2023/01/25 07:23:37;;;;;;;40.03;16.65;;;0.80;99.90;;;;;;7590208;19;20014;-78
2023/01/25 07:26:17;;;;;;;33.35;14.07;;;;;;;;;;7591924;19;20059;-75
2023/01/25 07:28:49;;;;;;;36.35;14.88;;;0.80;99.90;;;;;;7579244;19;20105;-76
2023/01/25 07:31:22;;;;;;;36.75;14.52;;;1.10;99.90;;;;;;7587005;19;20025;-76
2023/01/25 07:33:56;;;;;;;38.03;14.13;;;0.80;99.90;;;;;;7588228;19;20022;-73
2023/01/25 07:36:28;;;;;;;31.05;13.95;;;0.70;99.90;;;;;;7580844;19;20644;-75
2023/01/25 07:39:00;;;;;;;35.50;14.82;;;0.70;99.90;;;;;;7597762;19;20014;-74
2023/01/25 07:41:32;;;;;;;35.95;15.23;;;0.70;99.90;;;;;;7588672;19;20015;-74
2023/01/25 07:44:04;;;;;;;33.50;14.70;;;0.50;99.90;;;;;;7593691;19;20025;-74
2023/01/25 07:46:43;;;;;;;33.42;14.38;;;0.90;99.90;;;;;;7584122;19;20633;-75
2023/01/25 07:49:15;;;;;;;36.47;14.75;;;0.70;99.90;;;;;;6060894;19;10000583;-75
2023/01/25 07:51:47;;;;;;;33.25;14.10;;;0.80;99.90;;;;;;7577473;19;20022;-76
2023/01/25 07:54:19;;;;;;;37.88;15.32;;;0.80;99.90;;;;;;7548764;19;20030;-75
2023/01/25 16:58:23;;;;;;;69.32;21.65;;;-0.20;99.90;;;;;;7569198;19;20363;-71
2023/01/25 17:00:56;;;;;;;75.82;23.52;;;-0.10;99.90;;;;;;7590905;19;21621;-71
2023/01/25 17:03:29;;;;;;;71.07;23.07;;;-0.10;99.90;;;;;;7599912;19;20017;-71
2023/01/25 17:06:02;;;;;;;69.03;24.17;;;-0.10;99.90;;;;;;7588435;19;20026;-72
2023/01/25 17:08:34;;;;;;;93.93;27.65;;;0.00;99.90;;;;;;7604868;19;20665;-72
2023/01/25 17:11:07;;;;;;;75.05;23.42;;;0.10;99.90;;;;;;7585066;19;20025;-72
2023/01/25 17:13:39;;;;;;;70.20;24.20;;;0.20;99.90;;;;;;7598927;19;20022;-73
2023/01/25 17:16:12;;;;;;;75.25;21.83;;;0.30;99.90;;;;;;7590933;19;20029;-71
2023/01/25 17:18:45;;;;;;;63.85;21.70;;;0.20;99.90;;;;;;7584938;19;20018;-71
2023/01/25 17:21:19;;;;;;;64.10;21.42;;;0.30;99.90;;;;;;7592152;19;20010;-72
2023/01/25 17:23:52;;;;;;;72.50;23.30;;;0.30;99.90;;;;;;7586933;19;20026;-73
2023/01/25 17:26:26;;;;;;;;;;;0.30;99.90;;;;;;7575303;19;20010;-72
2023/01/25 17:29:03;;;;;;;56.35;20.13;;;0.40;99.90;;;;;;7584024;19;19919;-72
2023/01/25 17:31:36;;;;;;;72.15;22.98;;;0.40;99.90;;;;;;7588590;19;20049;-70
2023/01/25 17:34:14;;;;;;;68.57;23.13;;;0.40;99.90;;;;;;7576870;19;20022;-72
2023/01/25 17:36:51;;;;;;;70.28;23.08;;;0.40;99.90;;;;;;7580893;19;20026;-72
2023/01/25 17:39:24;;;;;;;69.07;22.85;;;0.40;99.90;;;;;;7567750;19;20723;-73
2023/01/25 17:41:56;;;;;;;70.53;23.45;;;0.40;99.90;;;;;;7594947;19;20021;-73
2023/01/25 17:44:28;;;;;;;70.05;25.27;;;0.40;99.90;;;;;;7593801;19;20363;-73
2023/01/25 17:47:00;;;;;;;76.20;24.37;;;0.50;99.90;;;;;;7575499;19;20021;-73
2023/01/25 17:49:33;;;;;;;61.45;22.17;;;0.50;99.90;;;;;;7588551;19;21601;-73
2023/01/25 17:52:05;;;;;;;59.53;20.33;;;0.50;99.90;;;;;;7605816;19;20426;-73
2023/01/25 17:54:39;;;;;;;57.97;21.38;;;0.50;99.90;;;;;;7607321;19;20007;-72
2023/01/25 17:57:11;;;;;;;67.97;23.20;;;0.50;99.90;;;;;;7588826;19;20022;-72
2023/01/25 17:59:43;;;;;;;73.80;23.45;;;0.50;99.90;;;;;;7560600;19;20676;-72
2023/01/25 18:02:15;;;;;;;68.13;22.75;;;0.50;99.90;;;;;;7561398;19;20746;-72
2023/01/25 18:04:48;;;;;;;74.07;24.40;;;0.50;99.90;;;;;;7594280;19;20010;-71
2023/01/25 18:07:20;;;;;;;77.28;26.70;;;0.50;99.90;;;;;;7620975;19;20025;-71
2023/01/25 18:09:53;;;;;;;71.80;24.20;;;0.50;99.90;;;;;;7552727;19;20029;-71
2023/01/25 18:12:26;;;;;;;74.90;24.47;;;0.50;99.90;;;;;;7553138;19;20010;-71
2023/01/25 18:14:58;;;;;;;76.35;23.83;;;0.50;99.90;;;;;;7568522;19;20779;-72
2023/01/25 18:17:36;;;;;;;66.38;23.40;;;0.40;99.90;;;;;;7565971;19;20014;-72
2023/01/25 18:20:10;;;;;;;76.43;25.17;;;0.40;99.90;;;;;;7568800;19;20018;-72
2023/01/25 18:22:43;;;;;;;76.43;24.58;;;0.40;99.90;;;;;;7582522;19;20011;-72
2023/01/25 18:25:35;;;;;;;66.47;22.60;;;0.40;99.90;;;;;;7604701;19;20029;-72
2023/01/25 18:28:12;;;;;;;58.13;21.30;;;0.30;99.90;;;;;;7567587;19;20109;-70
2023/01/25 18:30:51;;;;;;;54.45;20.30;;;0.30;99.90;;;;;;7585793;19;20380;-71
2023/01/25 18:33:23;;;;;;;59.28;20.55;;;0.40;99.90;;;;;;7549483;19;20015;-70
2023/01/25 18:35:58;;;;;;;54.78;19.75;;;0.30;99.90;;;;;;7601086;19;20612;-70
2023/01/25 18:38:33;;;;;;;68.63;22.35;;;0.40;99.90;;;;;;7587007;19;20010;-71
2023/01/25 18:41:07;;;;;;;65.15;21.42;;;0.40;99.90;;;;;;7572034;19;20052;-72
2023/01/25 18:43:40;;;;;;;60.55;21.23;;;0.30;99.90;;;;;;7583199;19;20017;-71
2023/01/25 18:46:12;;;;;;;61.42;21.83;;;0.40;99.90;;;;;;7603596;19;20038;-71
2023/01/25 18:48:45;;;;;;;58.10;20.52;;;0.40;99.90;;;;;;7559956;19;20026;-70
2023/01/25 18:51:18;;;;;;;62.30;21.45;;;0.40;99.90;;;;;;7577849;19;20084;-71
2023/01/25 18:53:50;;;;;;;62.13;22.43;;;0.40;99.90;;;;;;7548257;19;20022;-71
2023/01/25 18:56:24;;;;;;;57.05;20.27;;;0.40;99.90;;;;;;7579189;19;20090;-71
2023/01/25 18:58:59;;;;;;;57.58;20.55;;;0.40;99.90;;;;;;7583873;19;20595;-73
2023/01/25 19:01:32;;;;;;;70.38;22.48;;;0.40;99.90;;;;;;7575012;19;20098;-71
2023/01/25 19:04:04;;;;;;;53.45;20.92;;;0.30;99.90;;;;;;7570029;19;20116;-71
2023/01/25 19:06:36;;;;;;;57.72;19.55;;;0.40;99.90;;;;;;7569066;19;20022;-71
2023/01/25 19:09:08;;;;;;;51.90;18.60;;;0.40;99.90;;;;;;7580965;19;20033;-71
2023/01/25 19:11:41;;;;;;;45.47;17.05;;;0.40;99.90;;;;;;7550563;19;20012;-71
2023/01/25 19:14:13;;;;;;;47.65;18.00;;;0.40;99.90;;;;;;7561081;19;20322;-71
2023/01/25 19:16:45;;;;;;;50.10;18.48;;;0.40;99.90;;;;;;7560421;19;20011;-70
2023/01/25 19:19:19;;;;;;;51.30;18.40;;;0.30;99.90;;;;;;7557822;19;20014;-71
2023/01/25 19:21:52;;;;;;;;;;;0.30;99.90;;;;;;7556229;19;20018;-72
2023/01/25 19:24:25;;;;;;;51.00;17.92;;;0.30;99.90;;;;;;7565110;19;19954;-72
2023/01/25 19:26:57;;;;;;;54.40;19.77;;;0.30;99.90;;;;;;7554521;19;20018;-70
2023/01/25 19:29:30;;;;;;;57.15;20.02;;;0.40;99.90;;;;;;7565573;19;21012;-70
2023/01/25 19:32:02;;;;;;;55.50;19.30;;;0.40;99.90;;;;;;7547816;19;20025;-71
2023/01/25 19:34:34;;;;;;;47.15;18.50;;;0.40;99.90;;;;;;7558565;19;20019;-71
2023/01/25 19:37:07;;;;;;;55.93;19.63;;;0.40;99.90;;;;;;7572477;19;20041;-72
